»·PEaware :: N50TC KBUF-KPSP

N50TC :: KBUF-KPSP

FLIGHT INFORMATION

Flight Status: Arrived
Operator: Privately registered:
United States
More flights under this callsign
Pilot: Steven R. (3445)
Aircraft: BOEING 737-700
(B737)
More flights by this aircraft type
Origin: KBUF Buffalo Niagara Intl
United States
Destination: KPSP Palm Springs Intl
United States
More flights between these airports :: More routes between these airports
Route: JHW Q29 WWSHR DJB J60 IOW J192 PWE J64 TBC J236 EED SBONO1
File this flight plan on PilotEdge
Remarks:
Altitude:
(Current/Filed)
36,000ft
Speed:
(Current/Filed)
460kts
Departed: 27-Jun-19 12:06 PM
Arrived: 27-Jun-19 04:32 PM
Distance/Time
Traveled:
1842nm/4:26
Distance/Time
To Go:
Arrived

Flight Plot

Page will automatically refresh every two minutes.

Flight plan parsing failed; only flown route is shown


Map Options




Map Legend


Flown Route
Filed Route
Departure Airport
Arrival Airport
Navaid (VOR, NDB)
Fix

Horizontal Profiles

Position Reports

Time Latitude Longitude Heading Altitude Ground
Speed
27-Jun-19 11:39 42.947118 -78.735660 26 731ft 0kts
27-Jun-19 11:40 42.947118 -78.735660 26 731ft 0kts
27-Jun-19 11:41 42.947118 -78.735660 26 731ft 0kts
27-Jun-19 11:42 42.947118 -78.735660 26 732ft 0kts
27-Jun-19 11:43 42.947118 -78.735660 26 732ft 0kts
27-Jun-19 11:44 42.947118 -78.735660 26 732ft 0kts
27-Jun-19 11:45 42.947118 -78.735660 26 732ft 0kts
27-Jun-19 11:46 42.947118 -78.735660 26 732ft 0kts
27-Jun-19 11:47 42.947118 -78.735660 26 732ft 0kts
27-Jun-19 11:48 42.947118 -78.735660 26 732ft 0kts
27-Jun-19 11:49 42.947118 -78.735660 26 732ft 0kts
27-Jun-19 11:50 42.947118 -78.735660 26 732ft 0kts
27-Jun-19 11:51 42.947118 -78.735660 26 732ft 0kts
27-Jun-19 11:52 42.947118 -78.735660 26 732ft 0kts
27-Jun-19 11:53 42.947118 -78.735660 26 732ft 0kts
27-Jun-19 11:54 42.947118 -78.735660 26 732ft 0kts
27-Jun-19 11:55 42.947118 -78.735660 26 732ft 0kts
27-Jun-19 11:56 42.947118 -78.735660 26 732ft 0kts
27-Jun-19 11:57 42.947118 -78.735660 26 732ft 0kts
27-Jun-19 11:58 42.947161 -78.735614 48 732ft 3kts
27-Jun-19 11:59 42.945691 -78.734098 212 732ft 5kts
27-Jun-19 12:00 42.942873 -78.734908 206 732ft 12kts
27-Jun-19 12:01 42.940099 -78.731033 127 732ft 17kts
27-Jun-19 12:02 42.940880 -78.726875 43 732ft 18kts
27-Jun-19 12:03 42.944451 -78.722249 45 732ft 15kts
27-Jun-19 12:04 42.947663 -78.718073 26 732ft 10kts
27-Jun-19 12:05 42.945400 -78.723097 223 732ft 85kts
27-Jun-19 12:06 42.911597 -78.756597 198 2775ft 179kts
27-Jun-19 12:07 42.858315 -78.783871 203 5477ft 244kts
27-Jun-19 12:08 42.787879 -78.821560 202 9191ft 287kts
27-Jun-19 12:09 42.707775 -78.862665 205 11962ft 342kts
27-Jun-19 12:10 42.614886 -78.909427 205 15756ft 361kts
27-Jun-19 12:11 42.518641 -78.957772 204 19399ft 379kts
27-Jun-19 12:12 42.416732 -79.008807 204 22498ft 400kts
27-Jun-19 12:13 42.309838 -79.061573 204 25213ft 416kts
27-Jun-19 12:14 42.205150 -79.126903 229 27632ft 413kts
27-Jun-19 12:15 42.154179 -79.264307 250 29723ft 415kts
27-Jun-19 12:16 42.113929 -79.411317 252 31724ft 418kts
27-Jun-19 12:17 42.075615 -79.555652 252 34206ft 403kts
27-Jun-19 12:18 42.038848 -79.697167 252 36102ft 396kts
27-Jun-19 12:19 42.001143 -79.840599 252 36274ft 415kts
27-Jun-19 12:20 41.962598 -79.986357 252 36269ft 413kts
27-Jun-19 12:21 41.923807 -80.131683 252 36256ft 413kts
27-Jun-19 12:22 41.884947 -80.277612 252 36255ft 414kts
27-Jun-19 12:23 41.845516 -80.423446 251 36263ft 417kts
27-Jun-19 12:24 41.805672 -80.569613 251 36252ft 419kts
27-Jun-19 12:25 41.761645 -80.715387 249 36246ft 422kts
27-Jun-19 12:26 41.716600 -80.861023 249 36248ft 425kts
27-Jun-19 12:27 41.671308 -81.007222 249 36247ft 427kts
27-Jun-19 12:28 41.626121 -81.154359 250 36248ft 428kts
27-Jun-19 12:29 41.580441 -81.301271 249 36243ft 429kts
27-Jun-19 12:30 41.534265 -81.448709 249 36247ft 429kts
27-Jun-19 12:31 41.488048 -81.595467 249 36242ft 430kts
27-Jun-19 12:32 41.441719 -81.742703 249 36246ft 430kts
27-Jun-19 12:33 41.394988 -81.889149 249 36262ft 430kts
27-Jun-19 12:34 41.352293 -82.038011 262 36252ft 429kts
27-Jun-19 12:35 41.360143 -82.195137 277 36242ft 428kts
27-Jun-19 12:36 41.369909 -82.353673 274 36240ft 429kts
27-Jun-19 12:37 41.378689 -82.512212 274 36240ft 431kts
27-Jun-19 12:38 41.387614 -82.671803 274 36236ft 432kts
27-Jun-19 12:39 41.396163 -82.831998 274 36237ft 433kts
27-Jun-19 12:40 41.404516 -82.992338 274 36232ft 435kts
27-Jun-19 12:41 41.413113 -83.153249 274 36236ft 436kts
27-Jun-19 12:42 41.421786 -83.314900 274 36240ft 438kts
27-Jun-19 12:43 41.429764 -83.477128 273 36247ft 439kts
27-Jun-19 12:44 41.437378 -83.639887 273 36251ft 439kts
27-Jun-19 12:45 41.445180 -83.802838 273 36238ft 440kts
27-Jun-19 12:46 41.452500 -83.965849 273 36248ft 440kts
27-Jun-19 12:47 41.459431 -84.129372 273 36251ft 443kts
27-Jun-19 12:48 41.466594 -84.293287 273 36249ft 443kts
27-Jun-19 12:49 41.473273 -84.457711 273 36246ft 445kts
27-Jun-19 12:51 41.479564 -84.623002 273 36255ft 446kts
27-Jun-19 12:52 41.485664 -84.788892 272 36251ft 448kts
27-Jun-19 12:53 41.491490 -84.955194 272 36256ft 450kts
27-Jun-19 12:54 41.497150 -85.122223 273 36262ft 453kts
27-Jun-19 12:55 41.503318 -85.290511 272 36260ft 455kts
27-Jun-19 12:56 41.508780 -85.459560 272 36264ft 456kts
27-Jun-19 12:57 41.514131 -85.629019 273 36259ft 459kts
27-Jun-19 12:58 41.519172 -85.799322 273 36264ft 459kts
27-Jun-19 12:59 41.523698 -85.969634 273 36263ft 460kts
27-Jun-19 13:00 41.527194 -86.141284 272 36262ft 462kts
27-Jun-19 13:01 41.530003 -86.312792 272 36254ft 463kts
27-Jun-19 13:02 41.532510 -86.484166 271 36252ft 463kts
27-Jun-19 13:03 41.535432 -86.656190 271 36243ft 464kts
27-Jun-19 13:04 41.537922 -86.828539 271 36240ft 464kts
27-Jun-19 13:05 41.539963 -87.001739 271 36244ft 467kts
27-Jun-19 13:05 41.541290 -87.146109 270 36239ft 468kts
27-Jun-19 13:07 41.542820 -87.349937 271 36227ft 470kts
27-Jun-19 13:08 41.543804 -87.524952 271 36214ft 473kts
27-Jun-19 13:08 41.544440 -87.671173 271 36215ft 474kts
27-Jun-19 13:10 41.545732 -87.877197 271 36198ft 475kts
27-Jun-19 13:11 41.546533 -88.053958 270 36191ft 477kts
27-Jun-19 13:11 41.546506 -88.201685 270 36189ft 477kts
27-Jun-19 13:12 41.546744 -88.378436 270 36180ft 476kts
27-Jun-19 13:14 41.547383 -88.584453 270 36175ft 475kts
27-Jun-19 13:14 41.547610 -88.731839 270 36179ft 474kts
27-Jun-19 13:15 41.548266 -88.907701 270 36185ft 473kts
27-Jun-19 13:17 41.548647 -89.112536 270 36183ft 473kts
27-Jun-19 13:17 41.548240 -89.258857 270 36196ft 473kts
27-Jun-19 13:18 41.547466 -89.434879 270 36199ft 474kts
27-Jun-19 13:19 41.546443 -89.611511 270 36197ft 475kts
27-Jun-19 13:20 41.545100 -89.788028 270 36185ft 476kts
27-Jun-19 13:21 41.544134 -89.964327 270 36186ft 476kts
27-Jun-19 13:22 41.542735 -90.141469 270 36187ft 476kts
27-Jun-19 13:23 41.540913 -90.318191 270 36164ft 476kts
27-Jun-19 13:24 41.538808 -90.494554 269 36168ft 475kts
27-Jun-19 13:25 41.536427 -90.670583 269 36178ft 474kts
27-Jun-19 13:26 41.533740 -90.846977 269 36168ft 474kts
27-Jun-19 13:27 41.530811 -91.022290 269 36167ft 474kts
27-Jun-19 13:28 41.527596 -91.198571 269 36165ft 473kts
27-Jun-19 13:29 41.524389 -91.374079 268 36160ft 473kts
27-Jun-19 13:30 41.520428 -91.549366 268 36176ft 473kts
27-Jun-19 13:31 41.491312 -91.720285 251 36167ft 475kts
27-Jun-19 13:32 41.446793 -91.886308 251 36171ft 475kts
27-Jun-19 13:33 41.402285 -92.052125 251 36157ft 474kts
27-Jun-19 13:34 41.358560 -92.217206 251 36144ft 474kts
27-Jun-19 13:35 41.314181 -92.382567 250 36143ft 473kts
27-Jun-19 13:36 41.269590 -92.547172 250 36140ft 473kts
27-Jun-19 13:37 41.224751 -92.711715 250 36135ft 473kts
27-Jun-19 13:38 41.179688 -92.875846 250 36137ft 472kts
27-Jun-19 13:39 41.134671 -93.038880 250 36132ft 471kts
27-Jun-19 13:40 41.089231 -93.202009 250 36127ft 470kts
27-Jun-19 13:41 41.043649 -93.364798 249 36121ft 470kts
27-Jun-19 13:42 40.998023 -93.526639 249 36127ft 469kts
27-Jun-19 13:43 40.952088 -93.688538 249 36129ft 470kts
27-Jun-19 13:44 40.906064 -93.850013 249 36128ft 469kts
27-Jun-19 13:45 40.859659 -94.011805 248 36124ft 471kts
27-Jun-19 13:46 40.812906 -94.173479 248 36118ft 469kts
27-Jun-19 13:47 40.766251 -94.333838 248 36120ft 468kts
27-Jun-19 13:48 40.719318 -94.494071 248 36113ft 468kts
27-Jun-19 13:49 40.672117 -94.654432 248 36122ft 468kts
27-Jun-19 13:50 40.624913 -94.813848 248 36121ft 468kts
27-Jun-19 13:51 40.577349 -94.973517 248 36120ft 467kts
27-Jun-19 13:52 40.529916 -95.131922 247 36114ft 467kts
27-Jun-19 13:53 40.481964 -95.290752 248 36105ft 467kts
27-Jun-19 13:54 40.433938 -95.449274 248 36103ft 467kts
27-Jun-19 13:55 40.385390 -95.609000 249 35818ft 483kts
27-Jun-19 13:56 40.332051 -95.769389 242 36004ft 483kts
27-Jun-19 13:57 40.307482 -95.939229 237 35742ft 476kts
27-Jun-19 13:58 40.236880 -96.081119 252 36043ft 469kts
27-Jun-19 13:59 40.191778 -96.240621 252 36079ft 467kts
27-Jun-19 14:00 40.156632 -96.404506 254 36079ft 466kts
27-Jun-19 14:01 40.121490 -96.567618 253 36077ft 465kts
27-Jun-19 14:02 40.086485 -96.729557 254 36077ft 463kts
27-Jun-19 14:03 40.051207 -96.891118 253 36072ft 461kts
27-Jun-19 14:04 40.015673 -97.051774 253 36070ft 459kts
27-Jun-19 14:05 39.980067 -97.211392 253 36060ft 458kts
27-Jun-19 14:06 39.944467 -97.370236 253 36051ft 456kts
27-Jun-19 14:07 39.908546 -97.528741 253 36045ft 455kts
27-Jun-19 14:08 39.872522 -97.686827 253 36040ft 454kts
27-Jun-19 14:09 39.836412 -97.843949 253 36031ft 454kts
27-Jun-19 14:10 39.800117 -98.001019 253 36041ft 453kts
27-Jun-19 14:11 39.763650 -98.157660 253 36037ft 454kts
27-Jun-19 14:12 39.726922 -98.314387 253 36032ft 453kts
27-Jun-19 14:13 39.689942 -98.471151 253 36035ft 453kts
27-Jun-19 14:14 39.652792 -98.627301 253 36040ft 453kts
27-Jun-19 14:15 39.615423 -98.783507 253 36041ft 453kts
27-Jun-19 14:16 39.577767 -98.939824 253 36038ft 453kts
27-Jun-19 14:17 39.539993 -99.095927 253 36037ft 453kts
27-Jun-19 14:18 39.501977 -99.251554 253 36033ft 453kts
27-Jun-19 14:19 39.463951 -99.406657 253 36029ft 453kts
27-Jun-19 14:20 39.425620 -99.561680 254 36026ft 452kts
27-Jun-19 14:21 39.387047 -99.716829 253 36017ft 453kts
27-Jun-19 14:22 39.348522 -99.871522 254 36027ft 452kts
27-Jun-19 14:23 39.309638 -100.025642 254 36023ft 452kts
27-Jun-19 14:24 39.270462 -100.179669 253 36036ft 451kts
27-Jun-19 14:25 39.235039 -100.334594 257 36044ft 449kts
27-Jun-19 14:26 39.202465 -100.490572 257 36053ft 449kts
27-Jun-19 14:27 39.169393 -100.645688 256 36070ft 449kts
27-Jun-19 14:28 39.136800 -100.800752 257 36075ft 448kts
27-Jun-19 14:29 39.103671 -100.955754 256 36069ft 448kts
27-Jun-19 14:30 39.070280 -101.110321 256 36082ft 447kts
27-Jun-19 14:31 39.036761 -101.264281 256 36073ft 447kts
27-Jun-19 14:32 39.003075 -101.417675 256 36093ft 446kts
27-Jun-19 14:33 38.969156 -101.571074 256 36097ft 446kts
27-Jun-19 14:34 38.934929 -101.724786 256 36099ft 446kts
27-Jun-19 14:35 38.900713 -101.877558 256 36115ft 445kts
27-Jun-19 14:36 38.866267 -102.030100 256 36112ft 444kts
27-Jun-19 14:37 38.831727 -102.182023 256 36122ft 442kts
27-Jun-19 14:38 38.797094 -102.333460 256 36123ft 442kts
27-Jun-19 14:39 38.762427 -102.484278 256 36128ft 442kts
27-Jun-19 14:40 38.727382 -102.635549 255 36129ft 442kts
27-Jun-19 14:41 38.692234 -102.786373 255 36137ft 441kts
27-Jun-19 14:42 38.657048 -102.936161 255 36140ft 440kts
27-Jun-19 14:43 38.621552 -103.086471 255 36151ft 439kts
27-Jun-19 14:44 38.586026 -103.235924 255 36149ft 439kts
27-Jun-19 14:45 38.550499 -103.384525 255 36144ft 438kts
27-Jun-19 14:46 38.514738 -103.533264 255 36155ft 438kts
27-Jun-19 14:47 38.478654 -103.682020 254 36181ft 438kts
27-Jun-19 14:48 38.442485 -103.830017 255 36193ft 437kts
27-Jun-19 14:49 38.406191 -103.978331 254 36199ft 437kts
27-Jun-19 14:50 38.369959 -104.126621 254 36190ft 437kts
27-Jun-19 14:51 38.333194 -104.274208 254 36185ft 437kts
27-Jun-19 14:52 38.295820 -104.421313 251 36166ft 438kts
27-Jun-19 14:53 38.242080 -104.561074 245 36162ft 439kts
27-Jun-19 14:54 38.186231 -104.699243 245 36170ft 439kts
27-Jun-19 14:55 38.130721 -104.836765 245 36187ft 438kts
27-Jun-19 14:56 38.075349 -104.974748 245 36207ft 437kts
27-Jun-19 14:57 38.019799 -105.112157 245 36223ft 438kts
27-Jun-19 14:58 37.963745 -105.250114 245 36285ft 440kts
27-Jun-19 14:59 37.907508 -105.387711 244 36327ft 439kts
27-Jun-19 15:00 37.851248 -105.524691 244 36363ft 439kts
27-Jun-19 15:01 37.794703 -105.661737 244 36397ft 439kts
27-Jun-19 15:02 37.738279 -105.798068 244 36415ft 437kts
27-Jun-19 15:03 37.681556 -105.934362 244 36420ft 438kts
27-Jun-19 15:04 37.624860 -106.070051 244 36424ft 438kts
27-Jun-19 15:06 37.567825 -106.206065 243 36420ft 438kts
27-Jun-19 15:07 37.510550 -106.341927 243 36408ft 438kts
27-Jun-19 15:08 37.453258 -106.477401 243 36410ft 439kts
27-Jun-19 15:09 37.395504 -106.613375 243 36425ft 439kts
27-Jun-19 15:10 37.337813 -106.748532 243 36417ft 440kts
27-Jun-19 15:11 37.279843 -106.883849 243 36419ft 440kts
27-Jun-19 15:12 37.221687 -107.019132 243 36441ft 440kts
27-Jun-19 15:13 37.163282 -107.154256 243 36436ft 440kts
27-Jun-19 15:14 37.104806 -107.288967 243 36401ft 440kts
27-Jun-19 15:15 37.046203 -107.423557 242 36394ft 441kts
27-Jun-19 15:16 36.987476 -107.557765 242 36403ft 441kts
27-Jun-19 15:17 36.928422 -107.692200 243 36388ft 441kts
27-Jun-19 15:18 36.869455 -107.826620 242 36380ft 441kts
27-Jun-19 15:19 36.810077 -107.960442 242 36342ft 441kts
27-Jun-19 15:20 36.753094 -108.095296 249 36303ft 438kts
27-Jun-19 15:21 36.721970 -108.241612 257 36290ft 437kts
27-Jun-19 15:22 36.694398 -108.389401 257 36288ft 437kts
27-Jun-19 15:23 36.666795 -108.536803 257 36291ft 436kts
27-Jun-19 15:24 36.639620 -108.683493 257 36297ft 435kts
27-Jun-19 15:24 36.616495 -108.806231 257 36301ft 435kts
27-Jun-19 15:26 36.584071 -108.976750 256 36297ft 435kts
27-Jun-19 15:27 36.556052 -109.122809 256 36302ft 433kts
27-Jun-19 15:27 36.532627 -109.244280 256 36307ft 433kts
27-Jun-19 15:28 36.504286 -109.390107 256 36300ft 433kts
27-Jun-19 15:30 36.471049 -109.559940 256 36291ft 433kts
27-Jun-19 15:30 36.447136 -109.680870 255 36288ft 433kts
27-Jun-19 15:31 36.418403 -109.825876 255 36279ft 433kts
27-Jun-19 15:32 36.389496 -109.970897 255 36281ft 433kts
27-Jun-19 15:33 36.360575 -110.116039 255 36260ft 432kts
27-Jun-19 15:34 36.331186 -110.260477 255 36254ft 432kts
27-Jun-19 15:35 36.301697 -110.404807 255 36299ft 431kts
27-Jun-19 15:36 36.272205 -110.549253 255 36247ft 431kts
27-Jun-19 15:37 36.242585 -110.692578 255 36231ft 430kts
27-Jun-19 15:38 36.212597 -110.836266 255 36242ft 429kts
27-Jun-19 15:39 36.182988 -110.978967 254 36240ft 428kts
27-Jun-19 15:40 36.152787 -111.121791 254 36255ft 428kts
27-Jun-19 15:41 36.121344 -111.263734 249 36260ft 427kts
27-Jun-19 15:42 36.070115 -111.396211 243 36285ft 427kts
27-Jun-19 15:43 36.016662 -111.527276 243 36294ft 427kts
27-Jun-19 15:44 35.963052 -111.658405 243 36314ft 428kts
27-Jun-19 15:45 35.910025 -111.789234 244 36346ft 427kts
27-Jun-19 15:46 35.856325 -111.920543 243 36362ft 427kts
27-Jun-19 15:47 35.802719 -112.050876 243 36374ft 427kts
27-Jun-19 15:48 35.748847 -112.181232 243 36374ft 427kts
27-Jun-19 15:49 35.694792 -112.311381 243 36366ft 427kts
27-Jun-19 15:50 35.640683 -112.441295 243 36354ft 427kts
27-Jun-19 15:51 35.586391 -112.571191 243 36331ft 427kts
27-Jun-19 15:52 35.531902 -112.701005 243 36300ft 427kts
27-Jun-19 15:53 35.477389 -112.830350 242 36277ft 427kts
27-Jun-19 15:54 35.422649 -112.959636 242 36252ft 427kts
27-Jun-19 15:55 35.367735 -113.089000 242 36218ft 427kts
27-Jun-19 15:56 35.312820 -113.217665 242 36215ft 426kts
27-Jun-19 15:57 35.257867 -113.346123 242 36193ft 426kts
27-Jun-19 15:58 35.202826 -113.474259 242 36162ft 426kts
27-Jun-19 15:59 35.147488 -113.602501 242 36143ft 426kts
27-Jun-19 16:00 35.091930 -113.730695 242 36095ft 426kts
27-Jun-19 16:01 35.036274 -113.858748 242 36060ft 427kts
27-Jun-19 16:02 34.980527 -113.986629 241 36040ft 427kts
27-Jun-19 16:03 34.924496 -114.114401 242 36023ft 426kts
27-Jun-19 16:04 34.868597 -114.242324 241 36010ft 428kts
27-Jun-19 16:05 34.812257 -114.369776 241 36001ft 428kts
27-Jun-19 16:06 34.752296 -114.494405 233 36012ft 428kts
27-Jun-19 16:07 34.677831 -114.607298 231 36010ft 428kts
27-Jun-19 16:08 34.602853 -114.720089 231 36011ft 428kts
27-Jun-19 16:09 34.528154 -114.832411 232 36029ft 428kts
27-Jun-19 16:10 34.453638 -114.944477 231 36045ft 423kts
27-Jun-19 16:11 34.379988 -115.054723 231 34213ft 418kts
27-Jun-19 16:12 34.307118 -115.163488 231 30700ft 409kts
27-Jun-19 16:13 34.236927 -115.267843 230 27668ft 391kts
27-Jun-19 16:14 34.169621 -115.367579 230 24725ft 375kts
27-Jun-19 16:15 34.104878 -115.463510 230 21885ft 361kts
27-Jun-19 16:16 34.042522 -115.555612 229 19138ft 349kts
27-Jun-19 16:17 33.981925 -115.644533 229 16425ft 338kts
27-Jun-19 16:18 33.924442 -115.731830 240 13718ft 330kts
27-Jun-19 16:19 33.909082 -115.838932 264 11518ft 309kts
27-Jun-19 16:20 33.901924 -115.932710 253 10968ft 270kts
27-Jun-19 16:21 33.865651 -116.014931 238 9597ft 276kts
27-Jun-19 16:22 33.826526 -116.093152 238 8177ft 271kts
27-Jun-19 16:23 33.774844 -116.147368 203 7315ft 232kts
27-Jun-19 16:24 33.716857 -116.178578 205 5985ft 226kts
27-Jun-19 16:25 33.686356 -116.237884 261 4821ft 225kts
27-Jun-19 16:26 33.680455 -116.308635 261 4287ft 196kts
27-Jun-19 16:27 33.682239 -116.370702 304 3892ft 194kts
27-Jun-19 16:28 33.726275 -116.412152 319 2929ft 202kts
27-Jun-19 16:29 33.770580 -116.453195 319 1862ft 199kts
27-Jun-19 16:30 33.807867 -116.487772 321 907ft 129kts
27-Jun-19 16:31 33.830678 -116.508547 323 485ft 38kts
27-Jun-19 16:32 33.832826 -116.511942 198 485ft 0kts
27-Jun-19 16:33 33.832219 -116.512002 161 485ft 10kts
27-Jun-19 16:34 33.828797 -116.509003 134 485ft 20kts
27-Jun-19 16:35 33.825351 -116.507916 269 485ft 9kts
27-Jun-19 16:36 33.826264 -116.509456 358 485ft 0kts
27-Jun-19 16:37 33.826264 -116.509456 358 485ft 0kts
27-Jun-19 16:38 33.826264 -116.509456 358 485ft 0kts
27-Jun-19 16:39 33.826264 -116.509456 358 485ft 0kts
27-Jun-19 16:40 33.826264 -116.509456 358 485ft 0kts
27-Jun-19 16:41 33.826264 -116.509456 358 485ft 0kts

Navigation Log

Ident Type
Flight plan parsing failed, navigation log unavailable